createdAt,value
2019-04-01T00:00:43.473Z,27.67
2019-04-01T00:03:14.932Z,30.23
2019-04-01T00:05:46.385Z,27.93
2019-04-01T00:08:17.743Z,29.40
2019-04-01T00:10:49.104Z,30.62
2019-04-01T00:13:20.472Z,29.18
2019-04-01T00:15:51.804Z,30.15
2019-04-01T00:18:24.302Z,30.92
2019-04-01T00:20:55.555Z,31.05
2019-04-01T00:23:26.954Z,31.20
2019-04-01T00:25:58.272Z,29.95
2019-04-01T00:28:29.615Z,29.48
2019-04-01T00:31:00.969Z,28.45
2019-04-01T00:33:32.343Z,29.70
2019-04-01T00:36:03.678Z,24.67
2019-04-01T00:38:35.065Z,26.87
2019-04-01T00:41:06.474Z,26.50
2019-04-01T00:43:53.919Z,24.18
2019-04-01T00:46:25.448Z,26.15
2019-04-01T00:48:56.793Z,26.27
2019-04-01T00:51:28.128Z,28.55
2019-04-01T00:53:59.489Z,25.02
2019-04-01T00:56:30.868Z,25.08
2019-04-01T00:59:03.261Z,32.58
2019-04-01T01:01:34.609Z,41.33
2019-04-01T01:04:05.908Z,46.80
2019-04-01T01:06:37.275Z,50.08
2019-04-01T01:09:08.637Z,47.53
2019-04-01T01:11:40.032Z,44.73
2019-04-01T01:14:11.460Z,43.60
2019-04-01T01:16:42.818Z,47.85
2019-04-01T01:19:15.568Z,47.00
2019-04-01T01:21:46.875Z,47.45
2019-04-01T01:24:18.215Z,46.18
2019-04-01T01:26:49.598Z,42.48
2019-04-01T01:29:20.949Z,41.05
2019-04-01T01:31:52.298Z,37.20
2019-04-01T01:34:24.642Z,30.30
2019-04-01T01:36:55.946Z,28.60
2019-04-01T01:39:27.343Z,30.35
2019-04-01T01:41:58.721Z,29.35
2019-04-01T01:44:30.044Z,28.50
2019-04-01T01:47:01.380Z,27.65
2019-04-01T01:49:32.781Z,28.65
2019-04-01T01:52:04.099Z,21.70
2019-04-01T01:54:35.466Z,29.45
2019-04-01T01:57:06.801Z,38.17
2019-04-01T01:59:38.164Z,39.33
2019-04-01T02:02:09.530Z,36.75
2019-04-01T02:04:40.923Z,35.65
2019-04-01T02:07:12.268Z,37.10
2019-04-01T02:09:43.637Z,30.88
2019-04-01T02:12:14.993Z,38.05
2019-04-01T02:14:46.262Z,41.50
2019-04-01T02:17:17.635Z,41.48
2019-04-01T02:19:49.012Z,42.08
2019-04-01T02:22:20.457Z,41.00
2019-04-01T02:24:51.766Z,37.95
2019-04-01T02:27:23.118Z,39.30
2019-04-01T02:29:54.478Z,36.95
2019-04-01T02:32:25.877Z,40.35
2019-04-01T02:34:57.204Z,38.35
2019-04-01T02:37:28.539Z,39.05
2019-04-01T02:39:59.887Z,40.67
2019-04-01T02:42:31.227Z,40.43
2019-04-01T02:45:02.530Z,43.10
2019-04-01T02:47:33.908Z,44.13
2019-04-01T02:50:07.035Z,42.67
2019-04-01T02:52:38.404Z,47.73
2019-04-01T02:55:09.544Z,44.75
2019-04-01T02:57:40.880Z,44.85
2019-04-01T03:00:12.204Z,44.67
2019-04-01T03:02:43.544Z,45.28
2019-04-01T03:05:14.969Z,45.33
2019-04-01T03:07:46.364Z,42.23
2019-04-01T03:10:17.664Z,42.73
2019-04-01T03:12:49.061Z,41.23
2019-04-01T03:15:20.399Z,42.65
2019-04-01T03:17:51.727Z,37.75
2019-04-01T03:20:22.998Z,36.90
2019-04-01T03:22:54.374Z,41.02
2019-04-01T03:25:25.649Z,38.92
2019-04-01T03:27:57.005Z,40.80
2019-04-01T03:30:28.289Z,42.13
2019-04-01T03:32:59.753Z,30.95
2019-04-01T03:35:31.117Z,37.20
2019-04-01T03:38:02.627Z,40.08
2019-04-01T03:40:34.217Z,41.58
2019-04-01T03:43:05.654Z,38.70
2019-04-01T03:45:36.953Z,28.07
2019-04-01T03:48:08.345Z,41.02
2019-04-01T03:50:39.704Z,38.85
2019-04-01T03:53:11.057Z,38.73
2019-04-01T03:55:42.431Z,41.60
2019-04-01T03:58:13.758Z,38.78
2019-04-01T04:00:45.036Z,40.08
2019-04-01T04:03:16.372Z,38.53
2019-04-01T04:05:47.714Z,42.13
2019-04-01T04:08:19.081Z,42.05
2019-04-01T04:10:50.422Z,39.92
2019-04-01T04:13:21.815Z,38.73
2019-04-01T04:15:53.179Z,45.98
2019-04-01T04:18:24.555Z,51.35
2019-04-01T04:20:55.903Z,42.83
2019-04-01T04:23:27.339Z,38.80
2019-04-01T04:25:58.775Z,51.68
2019-04-01T04:28:30.138Z,49.60
2019-04-01T04:31:02.928Z,41.88
2019-04-01T04:33:34.285Z,41.48
2019-04-01T04:36:05.664Z,38.70
2019-04-01T04:38:37.048Z,38.58
2019-04-01T04:41:08.413Z,34.73
2019-04-01T04:43:39.830Z,35.40
2019-04-01T04:46:11.167Z,35.35
2019-04-01T04:48:42.483Z,37.75
2019-04-01T04:51:13.830Z,37.08
2019-04-01T04:53:45.158Z,32.83
2019-04-01T04:56:16.567Z,30.62
2019-04-01T04:58:47.944Z,31.85
2019-04-01T05:01:19.321Z,31.40
2019-04-01T05:03:50.677Z,30.65
2019-04-01T05:06:22.040Z,30.65
2019-04-01T05:08:54.390Z,31.70
2019-04-01T05:11:25.751Z,35.10
2019-04-01T05:13:57.376Z,34.27
2019-04-01T05:16:28.744Z,34.55
2019-04-01T05:19:00.146Z,30.90
2019-04-01T05:21:31.482Z,26.40
2019-04-01T05:24:02.998Z,26.07
2019-04-01T05:26:34.414Z,28.12
2019-04-01T05:29:05.787Z,25.20
2019-04-01T05:31:37.162Z,26.60
2019-04-01T05:34:09.631Z,29.92
2019-04-01T05:36:40.966Z,31.00
2019-04-01T05:39:12.293Z,30.12
2019-04-01T05:41:43.715Z,28.50
2019-04-01T05:44:15.000Z,30.05
2019-04-01T05:46:46.370Z,30.55
2019-04-01T05:49:19.034Z,33.02
2019-04-01T05:51:50.377Z,34.15
2019-04-01T05:54:21.776Z,35.23
2019-04-01T05:56:53.109Z,34.85
2019-04-01T05:59:24.555Z,34.33
2019-04-01T06:01:55.915Z,31.45
2019-04-01T06:04:27.282Z,34.20
2019-04-01T06:06:58.617Z,31.93
2019-04-01T06:09:29.975Z,28.35
2019-04-01T06:12:01.460Z,30.77
2019-04-01T06:14:32.852Z,32.08
2019-04-01T06:17:05.255Z,31.07
2019-04-01T06:19:37.930Z,31.70
2019-04-01T06:22:09.293Z,30.70
2019-04-01T06:24:40.606Z,31.65
2019-04-01T06:27:12.478Z,31.97
2019-04-01T06:29:44.074Z,30.17
2019-04-01T06:32:15.391Z,30.77
2019-04-01T06:34:52.684Z,42.08
2019-04-01T06:37:19.853Z,31.02
2019-04-01T06:39:52.260Z,27.65
2019-04-01T06:42:23.619Z,24.35
2019-04-01T06:44:55.066Z,25.75
2019-04-01T06:47:26.423Z,24.10
2019-04-01T06:49:57.776Z,23.60
2019-04-01T06:52:29.042Z,20.72
2019-04-01T06:55:00.388Z,22.75
2019-04-01T06:57:31.762Z,20.92
2019-04-01T07:00:03.316Z,18.45
2019-04-01T07:02:34.845Z,19.90
2019-04-01T07:05:12.382Z,21.17
2019-04-01T07:07:42.625Z,18.62
2019-04-01T07:10:13.974Z,17.25
2019-04-01T07:12:45.397Z,16.42
2019-04-01T07:15:16.750Z,16.15
2019-04-01T07:17:48.115Z,16.37
2019-04-01T07:20:19.528Z,15.78
2019-04-01T07:22:50.910Z,16.02
2019-04-01T07:25:22.368Z,17.37
2019-04-01T07:27:53.741Z,16.12
2019-04-01T07:30:25.231Z,16.32
2019-04-01T07:32:56.524Z,17.57
2019-04-01T07:35:27.925Z,16.37
2019-04-01T07:37:59.308Z,17.17
2019-04-01T07:40:30.723Z,17.32
2019-04-01T07:43:02.133Z,17.12
2019-04-01T07:45:33.558Z,18.07
2019-04-01T07:48:04.888Z,18.52
2019-04-01T07:50:36.409Z,19.07
2019-04-01T07:53:08.082Z,18.25
2019-04-01T07:55:41.096Z,19.50
2019-04-01T07:58:12.580Z,27.17
2019-04-01T08:00:44.119Z,31.80
2019-04-01T08:03:15.413Z,39.23
2019-04-01T08:05:46.800Z,38.70
2019-04-01T08:08:18.192Z,40.98
2019-04-01T08:10:49.536Z,41.55
2019-04-01T08:13:20.936Z,39.30
2019-04-01T08:15:52.312Z,59.93
2019-04-01T08:18:23.685Z,40.00
2019-04-01T08:20:55.048Z,42.15
2019-04-01T08:23:26.404Z,44.08
2019-04-01T08:25:57.799Z,58.75
2019-04-01T08:28:29.190Z,54.27
2019-04-01T08:31:09.095Z,53.35
2019-04-01T08:33:40.448Z,41.18
2019-04-01T08:36:11.812Z,40.70
2019-04-01T08:38:43.213Z,37.45
2019-04-01T08:41:14.573Z,35.63
2019-04-01T08:43:45.991Z,38.67
2019-04-01T08:46:17.422Z,51.48
2019-04-01T08:48:48.923Z,43.30
2019-04-01T08:51:20.291Z,36.68
2019-04-01T08:53:51.661Z,39.05
2019-04-01T08:56:23.009Z,42.65
2019-04-01T08:58:54.385Z,38.42
2019-04-01T09:01:35.260Z,37.05
2019-04-01T09:03:59.147Z,38.83
2019-04-01T09:06:31.489Z,37.42
2019-04-01T09:09:04.721Z,35.90
2019-04-01T09:11:38.443Z,32.15
2019-04-01T09:14:09.178Z,32.98
2019-04-01T09:16:41.440Z,38.05
2019-04-01T09:19:12.795Z,26.23
2019-04-01T09:21:45.171Z,33.92
2019-04-01T09:24:16.523Z,31.33
2019-04-01T09:26:47.854Z,31.55
2019-04-01T09:29:19.216Z,31.25
2019-04-01T09:31:50.585Z,30.35
2019-04-01T09:34:21.911Z,31.02
2019-04-01T09:36:53.319Z,26.48
2019-04-01T09:39:24.698Z,26.15
2019-04-01T09:41:56.005Z,25.97
2019-04-01T09:44:36.540Z,23.35
2019-04-01T09:47:00.401Z,22.37
2019-04-01T09:49:31.655Z,23.85
2019-04-01T09:52:03.981Z,25.35
2019-04-01T09:54:35.365Z,24.75
2019-04-01T09:57:17.506Z,26.10
2019-04-01T09:59:39.812Z,26.05
2019-04-01T10:02:11.156Z,23.38
2019-04-01T10:04:42.520Z,24.75
2019-04-01T10:07:13.829Z,22.02
2019-04-01T10:09:45.194Z,21.07
2019-04-01T10:12:16.577Z,21.17
2019-04-01T10:14:47.857Z,20.57
2019-04-01T10:17:19.212Z,20.32
2019-04-01T10:19:50.558Z,18.92
2019-04-01T10:22:21.941Z,18.82
2019-04-01T10:24:53.298Z,18.75
2019-04-01T10:27:24.636Z,18.98
2019-04-01T10:29:55.992Z,18.27
2019-04-01T10:32:27.363Z,18.75
2019-04-01T10:34:58.725Z,17.90
2019-04-01T10:37:29.994Z,18.55
2019-04-01T10:40:01.384Z,16.70
2019-04-01T10:42:32.862Z,17.67
2019-04-01T10:45:06.401Z,17.57
2019-04-01T10:47:37.856Z,17.80
2019-04-01T10:50:10.408Z,18.98
2019-04-01T10:52:44.012Z,18.27
2019-04-01T10:55:14.868Z,17.45
2019-04-01T10:57:46.232Z,17.62
2019-04-01T11:00:17.637Z,17.92
2019-04-01T11:02:50.202Z,16.50
2019-04-01T11:05:21.768Z,16.27
2019-04-01T11:07:53.109Z,17.67
2019-04-01T11:10:24.516Z,17.52
2019-04-01T11:12:55.879Z,17.20
2019-04-01T11:15:27.136Z,18.60
2019-04-01T11:17:58.502Z,16.85
2019-04-01T11:20:29.910Z,17.27
2019-04-01T11:23:02.860Z,17.50
2019-04-01T11:25:34.363Z,16.55
2019-04-01T11:28:05.710Z,16.57
2019-04-01T11:30:39.193Z,14.65
2019-04-01T11:33:10.515Z,17.02
2019-04-01T11:35:41.980Z,15.38
2019-04-01T11:38:13.466Z,15.68
2019-04-01T11:40:45.001Z,15.00
2019-04-01T11:43:16.298Z,14.75
2019-04-01T11:45:47.672Z,16.10
2019-04-01T11:48:19.052Z,15.28
2019-04-01T11:50:50.498Z,14.23
2019-04-01T11:53:21.816Z,14.53
2019-04-01T11:55:53.178Z,13.22
2019-04-01T11:58:24.426Z,14.95
2019-04-01T12:00:55.835Z,15.25
2019-04-01T12:03:27.200Z,15.53
2019-04-01T12:05:58.564Z,13.90
2019-04-01T12:08:30.639Z,15.88
2019-04-01T12:11:02.326Z,15.83
2019-04-01T12:13:33.723Z,15.93
2019-04-01T12:16:05.945Z,15.48
2019-04-01T12:18:38.183Z,15.90
2019-04-01T12:21:09.574Z,16.00
2019-04-01T12:23:40.926Z,15.98
2019-04-01T12:26:15.336Z,235.05
2019-04-01T12:28:45.290Z,73.40
2019-04-01T12:31:16.666Z,18.57
2019-04-01T12:33:48.052Z,15.98
2019-04-01T12:36:19.633Z,18.57
2019-04-01T12:38:53.660Z,16.77
2019-04-01T12:41:24.058Z,17.02
2019-04-01T12:43:55.404Z,16.75
2019-04-01T12:46:26.764Z,16.02
2019-04-01T12:48:58.139Z,17.07
2019-04-01T12:51:29.466Z,17.70
2019-04-01T12:54:00.809Z,19.73
2019-04-01T12:56:32.145Z,19.65
2019-04-01T12:59:03.483Z,21.77
2019-04-01T13:01:34.843Z,21.90
2019-04-01T13:04:06.190Z,22.73
2019-04-01T13:06:37.541Z,23.32
2019-04-01T13:09:08.896Z,22.77
2019-04-01T13:11:40.852Z,23.32
2019-04-01T13:14:13.719Z,21.97
2019-04-01T13:16:45.236Z,21.02
2019-04-01T13:19:16.636Z,21.52
2019-04-01T13:21:48.007Z,24.07
2019-04-01T13:24:19.342Z,23.50
2019-04-01T13:26:51.098Z,20.23
2019-04-01T13:29:24.065Z,22.75
2019-04-01T13:31:55.730Z,20.20
2019-04-01T13:34:27.100Z,22.17
2019-04-01T13:36:58.367Z,22.07
2019-04-01T13:39:29.705Z,23.02
2019-04-01T13:42:00.984Z,20.80
2019-04-01T13:44:37.262Z,21.33
2019-04-01T13:47:05.389Z,25.15
2019-04-01T13:49:36.740Z,22.52
2019-04-01T13:52:08.106Z,22.58
2019-04-01T13:54:39.473Z,22.62
2019-04-01T13:57:10.757Z,22.42
2019-04-01T13:59:49.166Z,22.85
2019-04-01T14:02:15.231Z,22.75
2019-04-01T14:04:46.594Z,22.80
2019-04-01T14:07:17.955Z,21.40
2019-04-01T14:09:50.731Z,23.00
2019-04-01T14:12:22.133Z,22.17
2019-04-01T14:14:53.521Z,22.00
2019-04-01T14:17:24.911Z,20.85
2019-04-01T14:19:56.248Z,20.70
2019-04-01T14:22:27.658Z,23.45
2019-04-01T14:24:59.039Z,23.12
2019-04-01T14:27:33.302Z,21.00
2019-04-01T14:30:06.256Z,21.17
2019-04-01T14:32:37.762Z,22.67
2019-04-01T14:35:10.963Z,23.80
2019-04-01T14:37:42.364Z,22.73
2019-04-01T14:40:13.711Z,24.80
2019-04-01T14:42:47.021Z,25.75
2019-04-01T14:45:18.009Z,25.72
2019-04-01T14:47:56.984Z,23.92
2019-04-01T14:50:22.414Z,23.35
2019-04-01T14:52:53.738Z,22.85
2019-04-01T14:55:25.111Z,21.30
2019-04-01T14:57:56.411Z,20.82
2019-04-01T15:00:29.498Z,21.20
2019-04-01T15:03:00.982Z,23.02
2019-04-01T15:05:32.354Z,20.85
2019-04-01T15:08:03.808Z,20.50
2019-04-01T15:10:35.192Z,20.23
2019-04-01T15:13:06.645Z,20.95
2019-04-01T15:15:38.072Z,21.42
2019-04-01T15:18:09.962Z,21.68
2019-04-01T15:20:41.614Z,22.65
2019-04-01T15:23:12.896Z,21.97
2019-04-01T15:25:44.327Z,21.82
2019-04-01T15:28:15.778Z,20.92
2019-04-01T15:30:47.218Z,21.40
2019-04-01T15:33:18.632Z,20.75
2019-04-01T15:35:50.068Z,19.65
2019-04-01T15:38:22.270Z,18.77
2019-04-01T15:40:54.108Z,18.62
2019-04-01T15:43:25.433Z,18.67
2019-04-01T15:45:56.767Z,17.05
2019-04-01T15:48:28.216Z,15.05
2019-04-01T15:50:59.551Z,14.50
2019-04-01T15:53:30.936Z,16.52
2019-04-01T15:56:02.376Z,16.07
2019-04-01T15:58:33.777Z,15.60
2019-04-01T16:01:05.055Z,15.18
2019-04-01T16:03:36.510Z,14.98
2019-04-01T16:06:08.038Z,15.53
2019-04-01T16:08:39.435Z,17.10
2019-04-01T16:11:10.771Z,15.40
2019-04-01T16:13:42.340Z,15.18
2019-04-01T16:16:14.862Z,15.98
2019-04-01T16:18:46.369Z,15.83
2019-04-01T16:21:17.731Z,15.55
2019-04-01T16:23:49.152Z,15.48
2019-04-01T16:26:20.574Z,16.52
2019-04-01T16:28:51.988Z,15.40
2019-04-01T16:31:23.609Z,15.63
2019-04-01T16:33:55.165Z,16.90
2019-04-01T16:36:26.625Z,15.95
2019-04-01T16:38:58.014Z,15.50
2019-04-01T16:41:29.360Z,15.35
2019-04-01T16:44:00.711Z,17.40
2019-04-01T16:46:32.078Z,16.80
2019-04-01T16:49:03.542Z,15.75
2019-04-01T16:51:34.895Z,14.60
2019-04-01T16:54:06.172Z,16.25
2019-04-01T16:56:38.060Z,15.58
2019-04-01T16:59:09.758Z,16.02
2019-04-01T17:01:41.663Z,16.07
2019-04-01T17:04:14.948Z,15.48
2019-04-01T17:06:46.371Z,17.00
2019-04-01T17:09:17.735Z,16.25
2019-04-01T17:11:49.127Z,15.60
2019-04-01T17:14:20.402Z,14.33
2019-04-01T17:16:51.798Z,15.30
2019-04-01T17:19:23.161Z,13.68
2019-04-01T17:21:54.537Z,14.55
2019-04-01T17:24:25.962Z,15.13
2019-04-01T17:27:00.506Z,13.70
2019-04-01T17:29:32.064Z,13.90
2019-04-01T17:32:03.392Z,13.80
2019-04-01T17:34:34.763Z,14.03
2019-04-01T17:37:06.085Z,14.47
2019-04-01T17:39:37.535Z,14.45
2019-04-01T17:42:08.878Z,14.07
2019-04-01T17:44:40.328Z,12.95
2019-04-01T17:47:12.176Z,13.85
2019-04-01T17:49:43.503Z,13.13
2019-04-01T17:52:14.894Z,13.13
2019-04-01T17:54:48.001Z,13.58
2019-04-01T17:57:19.317Z,14.05
2019-04-01T17:59:50.711Z,11.43
2019-04-01T18:02:29.607Z,13.88
2019-04-01T18:05:00.948Z,12.35
2019-04-01T18:07:32.326Z,13.35
2019-04-01T18:10:04.290Z,13.88
2019-04-01T18:12:35.803Z,13.28
2019-04-01T18:15:07.160Z,13.05
2019-04-01T18:17:38.537Z,13.45
2019-04-01T18:20:09.888Z,12.98
2019-04-01T18:22:42.814Z,14.43
2019-04-01T18:25:15.414Z,14.55
2019-04-01T18:27:46.780Z,13.20
2019-04-01T18:30:18.147Z,15.05
2019-04-01T18:32:53.377Z,13.20
2019-04-01T18:35:22.646Z,12.15
2019-04-01T18:37:53.993Z,14.00
2019-04-01T18:40:32.728Z,12.03
2019-04-01T18:43:00.007Z,12.82
2019-04-01T18:45:31.479Z,12.85
2019-04-01T18:48:02.872Z,14.50
2019-04-01T18:50:34.248Z,14.68
2019-04-01T18:53:06.410Z,14.43
2019-04-01T18:55:38.738Z,13.93
2019-04-01T18:58:10.111Z,15.00
2019-04-01T19:00:41.510Z,14.18
2019-04-01T19:03:12.858Z,14.87
2019-04-01T19:05:46.859Z,14.35
2019-04-01T19:08:17.281Z,13.58
2019-04-01T19:11:01.519Z,13.30
2019-04-01T19:13:21.747Z,13.93
2019-04-01T19:15:53.794Z,14.18
2019-04-01T19:18:25.900Z,13.75
2019-04-01T19:21:02.994Z,12.98
2019-04-01T19:23:31.102Z,12.93
2019-04-01T19:26:02.795Z,12.40
2019-04-01T19:28:35.180Z,13.25
2019-04-01T19:31:06.502Z,11.63
2019-04-01T19:33:38.256Z,12.78
2019-04-01T19:36:10.108Z,11.38
2019-04-01T19:38:41.465Z,10.53
2019-04-01T19:41:12.823Z,9.70
2019-04-01T19:43:45.106Z,9.93
2019-04-01T19:46:16.775Z,10.18
2019-04-01T19:48:49.168Z,10.55
2019-04-01T19:51:20.556Z,10.53
2019-04-01T19:53:52.390Z,10.08
2019-04-01T19:56:24.762Z,10.03
2019-04-01T19:58:56.148Z,11.43
2019-04-01T20:01:28.296Z,9.80
2019-04-01T20:04:00.521Z,9.75
2019-04-01T20:06:31.896Z,8.95
2019-04-01T20:09:04.812Z,9.75
2019-04-01T20:11:36.158Z,10.40
2019-04-01T20:14:07.521Z,10.78
2019-04-01T20:16:38.803Z,8.18
2019-04-01T20:19:10.192Z,9.90
2019-04-01T20:21:41.533Z,10.53
2019-04-01T20:24:12.962Z,10.18
2019-04-01T20:26:44.351Z,11.25
2019-04-01T20:29:15.743Z,11.15
2019-04-01T20:31:47.030Z,10.95
2019-04-01T20:34:20.068Z,11.28
2019-04-01T20:36:51.647Z,10.80
2019-04-01T20:39:23.100Z,11.70
2019-04-01T20:41:54.494Z,11.20
2019-04-01T20:44:25.882Z,11.57
2019-04-01T20:46:57.252Z,11.12
2019-04-01T20:49:29.363Z,10.53
2019-04-01T20:52:01.931Z,12.15
2019-04-01T20:54:33.337Z,12.58
2019-04-01T20:57:05.260Z,12.53
2019-04-01T20:59:36.858Z,11.83
2019-04-01T21:02:08.212Z,12.23
2019-04-01T21:04:39.561Z,12.58
2019-04-01T21:07:10.847Z,12.82
2019-04-01T21:09:42.227Z,12.33
2019-04-01T21:12:13.628Z,12.95
2019-04-01T21:14:46.693Z,12.85
2019-04-01T21:17:18.125Z,11.80
2019-04-01T21:19:49.488Z,10.95
2019-04-01T21:22:20.785Z,12.58
2019-04-01T21:24:52.130Z,12.43
2019-04-01T21:27:24.154Z,12.40
2019-04-01T21:29:57.022Z,12.90
2019-04-01T21:32:28.392Z,12.18
2019-04-01T21:34:59.730Z,12.68
2019-04-01T21:37:31.091Z,12.60
2019-04-01T21:40:02.451Z,12.50
2019-04-01T21:42:33.774Z,11.83
2019-04-01T21:45:08.348Z,11.38
2019-04-01T21:47:40.211Z,12.35
2019-04-01T21:50:12.556Z,12.25
2019-04-01T21:52:43.917Z,11.78
2019-04-01T21:55:15.278Z,13.13
2019-04-01T21:57:46.772Z,11.65
2019-04-01T22:00:35.815Z,12.45
2019-04-01T22:03:07.293Z,12.60
2019-04-01T22:05:38.649Z,10.53
2019-04-01T22:08:09.970Z,11.65
2019-04-01T22:10:41.343Z,9.73
2019-04-01T22:13:12.580Z,11.78
2019-04-01T22:15:44.052Z,11.97
2019-04-01T22:18:15.406Z,12.25
2019-04-01T22:20:46.830Z,12.78
2019-04-01T22:23:18.206Z,11.75
2019-04-01T22:25:49.570Z,11.73
2019-04-01T22:28:21.254Z,12.93
2019-04-01T22:30:53.663Z,11.93
2019-04-01T22:33:27.727Z,11.22
2019-04-01T22:35:58.100Z,11.22
2019-04-01T22:38:29.450Z,12.28
2019-04-01T22:41:00.814Z,11.28
2019-04-01T22:43:32.171Z,11.00
2019-04-01T22:46:03.541Z,11.28
2019-04-01T22:48:34.897Z,10.32
2019-04-01T22:51:06.198Z,11.50
2019-04-01T22:53:37.541Z,12.10
2019-04-01T22:56:08.912Z,11.83
2019-04-01T22:58:40.407Z,11.25
2019-04-01T23:01:11.708Z,10.45
2019-04-01T23:03:43.071Z,11.12
2019-04-01T23:06:14.441Z,10.40
2019-04-01T23:08:45.823Z,7.40
2019-04-01T23:11:17.069Z,9.83
2019-04-01T23:13:48.442Z,10.30
2019-04-01T23:16:20.063Z,10.55
2019-04-01T23:18:51.410Z,10.30
2019-04-01T23:21:22.712Z,10.03
2019-04-01T23:23:54.061Z,9.30
2019-04-01T23:26:26.713Z,9.85
2019-04-01T23:28:58.741Z,9.58
2019-04-01T23:31:30.035Z,8.55
2019-04-01T23:34:01.283Z,8.83
2019-04-01T23:36:32.501Z,8.65
2019-04-01T23:39:05.663Z,8.35
2019-04-01T23:41:37.498Z,8.75
2019-04-01T23:44:08.687Z,8.50
2019-04-01T23:46:39.914Z,8.75
2019-04-01T23:49:11.552Z,7.80
2019-04-01T23:51:42.997Z,8.63
2019-04-01T23:54:14.208Z,8.38
2019-04-01T23:56:45.383Z,8.07
2019-04-01T23:59:16.711Z,8.30
